createdAt,value
2018-05-09T00:00:51.804Z,99.30
2018-05-09T00:03:20.238Z,99.20
2018-05-09T00:05:49.625Z,98.80
2018-05-09T00:08:17.804Z,98.80
2018-05-09T00:10:46.066Z,98.80
2018-05-09T00:13:14.452Z,98.80
2018-05-09T00:15:42.743Z,98.80
2018-05-09T00:18:11.802Z,98.90
2018-05-09T00:20:40.322Z,98.80
2018-05-09T00:23:09.278Z,99.20
2018-05-09T00:25:37.253Z,99.10
2018-05-09T00:28:05.682Z,99.30
2018-05-09T00:30:34.185Z,99.20
2018-05-09T00:33:02.269Z,99.30
2018-05-09T00:35:30.270Z,99.20
2018-05-09T00:37:58.631Z,99.20
2018-05-09T00:40:26.811Z,98.90
2018-05-09T00:42:55.305Z,98.90
2018-05-09T00:45:23.577Z,99.20
2018-05-09T00:47:52.057Z,99.60
2018-05-09T00:50:20.141Z,99.60
2018-05-09T00:52:49.382Z,99.90
2018-05-09T00:55:17.692Z,99.90
2018-05-09T00:57:46.055Z,99.90
2018-05-09T01:00:14.862Z,99.90
2018-05-09T01:02:42.723Z,99.90
2018-05-09T01:05:10.929Z,99.90
2018-05-09T01:07:39.992Z,99.90
2018-05-09T01:10:08.286Z,99.90
2018-05-09T01:12:40.841Z,99.90
2018-05-09T01:15:09.137Z,99.90
2018-05-09T01:17:37.686Z,99.90
2018-05-09T01:20:05.671Z,99.90
2018-05-09T01:22:33.949Z,99.90
2018-05-09T01:25:02.500Z,99.90
2018-05-09T01:27:30.704Z,99.90
2018-05-09T01:29:58.877Z,99.90
2018-05-09T01:32:27.357Z,99.90
2018-05-09T01:34:55.427Z,99.90
2018-05-09T01:37:23.697Z,99.90
2018-05-09T01:39:51.778Z,99.90
2018-05-09T01:42:19.749Z,99.90
2018-05-09T01:44:47.718Z,99.90
2018-05-09T01:47:16.816Z,99.90
2018-05-09T01:49:44.981Z,99.90
2018-05-09T01:52:13.275Z,99.90
2018-05-09T01:54:41.445Z,99.90
2018-05-09T01:57:10.793Z,99.90
2018-05-09T01:59:39.391Z,99.90
2018-05-09T02:02:07.696Z,99.90
2018-05-09T02:04:35.965Z,99.90
2018-05-09T02:07:04.235Z,99.90
2018-05-09T02:09:32.106Z,99.90
2018-05-09T02:12:00.089Z,99.90
2018-05-09T02:14:28.578Z,99.90
2018-05-09T02:16:57.733Z,99.90
2018-05-09T02:19:26.029Z,99.90
2018-05-09T02:21:54.225Z,99.90
2018-05-09T02:24:22.378Z,99.90
2018-05-09T02:26:50.517Z,99.90
2018-05-09T02:29:19.242Z,99.90
2018-05-09T02:31:47.494Z,99.90
2018-05-09T02:34:15.568Z,99.90
2018-05-09T02:36:43.757Z,99.90
2018-05-09T02:39:11.997Z,99.90
2018-05-09T02:41:40.224Z,99.90
2018-05-09T02:44:08.659Z,99.90
2018-05-09T02:46:36.859Z,99.90
2018-05-09T02:49:05.102Z,99.90
2018-05-09T02:51:34.132Z,99.90
2018-05-09T02:54:02.491Z,99.90
2018-05-09T02:56:30.994Z,99.90
2018-05-09T02:58:58.851Z,99.90
2018-05-09T03:01:27.127Z,99.90
2018-05-09T03:03:54.992Z,99.90
2018-05-09T03:06:23.276Z,99.90
2018-05-09T03:08:51.139Z,99.90
2018-05-09T03:11:19.415Z,99.90
2018-05-09T03:13:47.787Z,99.90
2018-05-09T03:16:15.749Z,99.90
2018-05-09T03:18:43.953Z,99.90
2018-05-09T03:21:12.945Z,99.90
2018-05-09T03:23:42.134Z,99.90
2018-05-09T03:26:10.204Z,99.90
2018-05-09T03:28:38.661Z,99.90
2018-05-09T03:31:06.851Z,99.90
2018-05-09T03:33:35.396Z,99.90
2018-05-09T03:36:03.914Z,99.90
2018-05-09T03:38:32.386Z,99.90
2018-05-09T03:41:00.260Z,99.90
2018-05-09T03:43:28.532Z,99.90
2018-05-09T03:45:56.666Z,99.90
2018-05-09T03:48:24.977Z,99.90
2018-05-09T03:50:53.255Z,99.90
2018-05-09T03:53:21.604Z,99.90
2018-05-09T03:55:50.184Z,99.90
2018-05-09T03:58:18.486Z,99.90
2018-05-09T04:00:46.919Z,99.90
2018-05-09T04:03:26.824Z,99.90
2018-05-09T04:06:06.668Z,99.90
2018-05-09T04:08:46.729Z,99.90
2018-05-09T04:11:16.631Z,99.90
2018-05-09T04:13:45.182Z,99.90
2018-05-09T04:16:13.695Z,99.90
2018-05-09T04:18:42.114Z,99.90
2018-05-09T04:21:11.997Z,99.90
2018-05-09T04:23:40.599Z,99.90
2018-05-09T04:26:09.793Z,99.90
2018-05-09T04:28:39.069Z,99.90
2018-05-09T04:31:06.929Z,99.90
2018-05-09T04:33:35.219Z,99.90
2018-05-09T04:36:03.706Z,99.90
2018-05-09T04:38:32.275Z,99.90
2018-05-09T04:41:00.547Z,99.90
2018-05-09T04:43:30.804Z,99.90
2018-05-09T04:45:59.797Z,99.90
2018-05-09T04:48:28.841Z,99.90
2018-05-09T04:50:58.147Z,99.90
2018-05-09T04:53:26.549Z,99.90
2018-05-09T04:55:54.823Z,99.90
2018-05-09T04:58:23.095Z,99.90
2018-05-09T05:00:51.658Z,99.90
2018-05-09T05:03:21.207Z,99.90
2018-05-09T05:05:51.076Z,99.90
2018-05-09T05:08:19.580Z,99.90
2018-05-09T05:10:47.961Z,99.90
2018-05-09T05:13:16.278Z,99.90
2018-05-09T05:15:44.814Z,99.90
2018-05-09T05:18:13.390Z,99.90
2018-05-09T05:20:41.969Z,99.90
2018-05-09T05:23:10.784Z,99.90
2018-05-09T05:25:40.171Z,99.90
2018-05-09T05:28:08.837Z,99.90
2018-05-09T05:30:37.537Z,99.90
2018-05-09T05:33:05.836Z,99.90
2018-05-09T05:35:35.026Z,99.90
2018-05-09T05:38:04.311Z,99.90
2018-05-09T05:40:32.613Z,99.90
2018-05-09T05:43:02.421Z,99.90
2018-05-09T05:45:31.505Z,99.90
2018-05-09T05:47:59.767Z,99.90
2018-05-09T05:50:28.175Z,99.90
2018-05-09T05:52:57.354Z,99.90
2018-05-09T05:55:25.877Z,99.90
2018-05-09T05:57:54.532Z,99.90
2018-05-09T06:00:24.175Z,99.90
2018-05-09T06:02:53.017Z,99.90
2018-05-09T06:05:21.412Z,99.90
2018-05-09T06:07:50.949Z,99.90
2018-05-09T06:10:19.079Z,99.90
2018-05-09T06:12:48.295Z,99.90
2018-05-09T06:15:17.959Z,99.90
2018-05-09T06:17:46.971Z,99.90
2018-05-09T06:20:15.363Z,99.90
2018-05-09T06:22:44.771Z,99.90
2018-05-09T06:25:13.755Z,99.90
2018-05-09T06:27:43.140Z,99.90
2018-05-09T06:30:11.742Z,99.90
2018-05-09T06:32:41.019Z,99.90
2018-05-09T06:35:09.503Z,99.90
2018-05-09T06:37:38.027Z,99.90
2018-05-09T06:40:06.557Z,99.90
2018-05-09T06:42:36.492Z,99.90
2018-05-09T06:45:04.565Z,99.90
2018-05-09T06:47:32.832Z,99.90
2018-05-09T06:50:01.280Z,99.90
2018-05-09T06:52:30.326Z,99.90
2018-05-09T06:54:59.102Z,99.90
2018-05-09T06:57:27.398Z,99.90
2018-05-09T06:59:56.596Z,99.40
2018-05-09T07:02:24.863Z,99.40
2018-05-09T07:04:54.316Z,99.30
2018-05-09T07:07:22.833Z,99.30
2018-05-09T07:09:51.308Z,99.70
2018-05-09T07:12:19.755Z,99.30
2018-05-09T07:14:48.053Z,98.80
2018-05-09T07:17:16.338Z,98.60
2018-05-09T07:19:44.722Z,97.70
2018-05-09T07:22:13.341Z,96.80
2018-05-09T07:24:41.677Z,96.00
2018-05-09T07:27:10.279Z,95.80
2018-05-09T07:29:39.590Z,96.10
2018-05-09T07:32:08.700Z,94.50
2018-05-09T07:34:37.375Z,94.50
2018-05-09T07:37:07.172Z,93.70
2018-05-09T07:39:36.274Z,93.30
2018-05-09T07:42:05.947Z,91.70
2018-05-09T07:44:34.866Z,91.70
2018-05-09T07:47:04.260Z,89.80
2018-05-09T07:49:32.949Z,89.60
2018-05-09T07:52:02.567Z,79.00
2018-05-09T07:54:31.658Z,77.00
2018-05-09T07:57:01.016Z,72.20
2018-05-09T07:59:29.608Z,72.20
2018-05-09T08:01:57.786Z,67.10
2018-05-09T08:04:25.843Z,65.70
2018-05-09T08:06:54.143Z,66.10
2018-05-09T08:09:22.736Z,62.40
2018-05-09T08:11:52.368Z,55.60
2018-05-09T08:14:21.537Z,55.50
2018-05-09T08:16:49.905Z,54.30
2018-05-09T08:19:18.295Z,53.80
2018-05-09T08:21:48.085Z,51.50
2018-05-09T08:24:16.164Z,49.10
2018-05-09T08:26:46.164Z,49.90
2018-05-09T08:29:15.141Z,50.40
2018-05-09T08:31:43.766Z,48.20
2018-05-09T08:34:12.660Z,45.30
2018-05-09T08:36:41.740Z,43.20
2018-05-09T08:39:13.988Z,42.50
2018-05-09T08:41:42.532Z,42.50
2018-05-09T08:44:10.867Z,41.40
2018-05-09T08:46:41.044Z,40.40
2018-05-09T08:49:09.461Z,40.10
2018-05-09T08:51:38.075Z,39.50
2018-05-09T08:54:07.053Z,36.50
2018-05-09T08:56:36.042Z,36.50
2018-05-09T08:59:04.235Z,37.80
2018-05-09T09:01:33.232Z,35.50
2018-05-09T09:04:02.795Z,35.40
2018-05-09T09:06:31.523Z,35.30
2018-05-09T09:08:59.955Z,34.80
2018-05-09T09:11:28.477Z,34.00
2018-05-09T09:13:57.468Z,33.20
2018-05-09T09:16:27.395Z,33.60
2018-05-09T09:18:56.968Z,33.90
2018-05-09T09:21:26.998Z,36.50
2018-05-09T09:23:55.163Z,36.30
2018-05-09T09:26:23.723Z,38.30
2018-05-09T09:28:52.347Z,38.40
2018-05-09T09:31:21.245Z,39.20
2018-05-09T09:33:50.523Z,36.80
2018-05-09T09:36:20.683Z,37.60
2018-05-09T09:38:49.155Z,37.60
2018-05-09T09:41:18.443Z,35.70
2018-05-09T09:43:47.609Z,35.30
2018-05-09T09:46:16.218Z,35.20
2018-05-09T09:48:45.289Z,36.80
2018-05-09T09:51:14.001Z,36.80
2018-05-09T09:53:42.240Z,38.80
2018-05-09T09:56:10.560Z,39.10
2018-05-09T09:58:39.745Z,40.40
2018-05-09T10:01:08.890Z,40.10
2018-05-09T10:03:38.444Z,40.10
2018-05-09T10:06:08.030Z,38.70
2018-05-09T10:08:36.123Z,38.60
2018-05-09T10:11:04.912Z,37.00
2018-05-09T10:13:34.191Z,34.80
2018-05-09T10:16:02.702Z,34.70
2018-05-09T10:18:31.320Z,34.00
2018-05-09T10:20:59.700Z,32.80
2018-05-09T10:23:30.035Z,34.00
2018-05-09T10:26:05.554Z,35.30
2018-05-09T10:28:33.999Z,35.90
2018-05-09T10:31:02.453Z,36.80
2018-05-09T10:33:30.764Z,37.90
2018-05-09T10:35:59.611Z,39.60
2018-05-09T10:38:27.830Z,39.60
2018-05-09T10:40:57.189Z,39.90
2018-05-09T10:43:25.694Z,39.90
2018-05-09T10:45:54.177Z,40.70
2018-05-09T10:48:22.455Z,41.50
2018-05-09T10:50:52.076Z,39.30
2018-05-09T10:53:21.219Z,38.70
2018-05-09T10:55:49.848Z,38.60
2018-05-09T10:58:19.157Z,36.70
2018-05-09T11:00:48.130Z,36.00
2018-05-09T11:03:16.594Z,36.00
2018-05-09T11:05:45.618Z,35.10
2018-05-09T11:08:15.117Z,34.30
2018-05-09T11:10:43.797Z,34.30
2018-05-09T11:13:12.115Z,33.40
2018-05-09T11:15:40.665Z,34.20
2018-05-09T11:18:09.445Z,33.20
2018-05-09T11:20:38.115Z,34.20
2018-05-09T11:23:06.514Z,32.80
2018-05-09T11:25:35.617Z,34.90
2018-05-09T11:28:04.517Z,35.30
2018-05-09T11:30:34.005Z,35.10
2018-05-09T11:33:02.295Z,35.10
2018-05-09T11:35:31.688Z,37.60
2018-05-09T11:38:00.689Z,38.90
2018-05-09T11:40:29.790Z,40.70
2018-05-09T11:42:59.376Z,41.30
2018-05-09T11:45:27.648Z,41.20
2018-05-09T11:47:55.933Z,41.70
2018-05-09T11:50:24.097Z,41.50
2018-05-09T11:52:52.352Z,42.90
2018-05-09T11:55:20.644Z,43.80
2018-05-09T11:57:49.330Z,44.10
2018-05-09T12:00:17.410Z,44.60
2018-05-09T12:02:45.995Z,44.30
2018-05-09T12:05:14.302Z,45.20
2018-05-09T12:07:42.747Z,46.00
2018-05-09T12:10:11.548Z,47.60
2018-05-09T12:12:40.631Z,49.10
2018-05-09T12:15:09.131Z,49.00
2018-05-09T12:17:39.329Z,48.10
2018-05-09T12:20:07.401Z,48.00
2018-05-09T12:22:36.011Z,48.60
2018-05-09T12:25:05.738Z,47.30
2018-05-09T12:27:33.965Z,47.20
2018-05-09T12:30:02.128Z,44.50
2018-05-09T12:32:30.398Z,44.60
2018-05-09T12:34:58.597Z,44.20
2018-05-09T12:37:27.052Z,43.00
2018-05-09T12:39:55.253Z,43.60
2018-05-09T12:42:23.308Z,40.80
2018-05-09T12:44:53.206Z,39.00
2018-05-09T12:47:23.164Z,38.30
2018-05-09T12:49:52.123Z,38.30
2018-05-09T12:52:20.554Z,38.30
2018-05-09T12:54:50.241Z,37.10
2018-05-09T12:57:19.322Z,35.50
2018-05-09T12:59:47.854Z,35.50
2018-05-09T13:02:16.241Z,34.20
2018-05-09T13:04:44.363Z,34.20
2018-05-09T13:07:14.192Z,34.90
2018-05-09T13:09:43.979Z,35.00
2018-05-09T13:12:12.459Z,35.00
2018-05-09T13:14:41.117Z,35.20
2018-05-09T13:17:10.491Z,35.70
2018-05-09T13:19:38.845Z,35.50
2018-05-09T13:22:08.234Z,35.90
2018-05-09T13:24:36.556Z,35.90
2018-05-09T13:27:04.683Z,36.60
2018-05-09T13:29:33.493Z,38.60
2018-05-09T13:32:03.324Z,40.50
2018-05-09T13:34:32.076Z,40.50
2018-05-09T13:37:01.163Z,41.20
2018-05-09T13:39:29.531Z,41.10
2018-05-09T13:41:58.011Z,40.90
2018-05-09T13:44:26.482Z,41.30
2018-05-09T13:46:54.955Z,42.60
2018-05-09T13:49:23.258Z,42.90
2018-05-09T13:51:51.339Z,42.10
2018-05-09T13:54:21.304Z,42.50
2018-05-09T13:56:49.995Z,42.40
2018-05-09T13:59:18.523Z,43.40
2018-05-09T14:01:48.011Z,39.40
2018-05-09T14:04:16.475Z,39.20
2018-05-09T14:06:45.099Z,38.50
2018-05-09T14:09:13.979Z,35.20
2018-05-09T14:11:43.179Z,33.70
2018-05-09T14:14:12.380Z,34.60
2018-05-09T14:16:41.995Z,33.40
2018-05-09T14:19:11.374Z,33.40
2018-05-09T14:21:41.680Z,33.40
2018-05-09T14:24:14.489Z,34.20
2018-05-09T14:26:45.309Z,34.30
2018-05-09T14:29:17.629Z,34.10
2018-05-09T14:31:48.249Z,34.00
2018-05-09T14:34:17.307Z,35.30
2018-05-09T14:36:46.722Z,37.10
2018-05-09T14:39:15.691Z,36.70
2018-05-09T14:41:44.603Z,36.10
2018-05-09T14:44:18.082Z,34.90
2018-05-09T14:46:47.066Z,34.80
2018-05-09T14:49:15.277Z,34.40
2018-05-09T14:51:44.779Z,36.00
2018-05-09T14:54:14.067Z,36.90
2018-05-09T14:56:44.298Z,36.80
2018-05-09T14:59:13.083Z,36.20
2018-05-09T15:01:41.643Z,37.10
2018-05-09T15:04:11.339Z,37.70
2018-05-09T15:06:40.059Z,37.00
2018-05-09T15:09:09.051Z,39.00
2018-05-09T15:11:38.155Z,39.20
2018-05-09T15:14:07.682Z,40.30
2018-05-09T15:16:35.819Z,40.20
2018-05-09T15:19:04.170Z,40.60
2018-05-09T15:21:33.099Z,40.50
2018-05-09T15:24:02.699Z,41.10
2018-05-09T15:26:31.821Z,42.30
2018-05-09T15:29:00.731Z,42.30
2018-05-09T15:31:29.681Z,42.40
2018-05-09T15:33:58.778Z,43.80
2018-05-09T15:36:28.382Z,43.10
2018-05-09T15:38:57.380Z,43.90
2018-05-09T15:41:26.379Z,44.90
2018-05-09T15:43:56.031Z,46.50
2018-05-09T15:46:25.260Z,46.40
2018-05-09T15:48:54.342Z,49.20
2018-05-09T15:51:23.461Z,57.40
2018-05-09T15:53:54.202Z,60.50
2018-05-09T15:56:24.238Z,65.70
2018-05-09T15:58:52.683Z,65.70
2018-05-09T16:01:25.067Z,74.20
2018-05-09T16:03:54.172Z,83.70
2018-05-09T16:06:31.648Z,83.70
2018-05-09T16:09:05.051Z,83.70
2018-05-09T16:11:33.643Z,88.00
2018-05-09T16:14:02.955Z,90.90
2018-05-09T16:16:31.419Z,90.90
2018-05-09T16:19:02.683Z,93.60
2018-05-09T16:21:31.347Z,93.60
2018-05-09T16:24:01.739Z,95.50
2018-05-09T16:26:29.931Z,95.50
2018-05-09T16:28:58.203Z,97.20
2018-05-09T16:31:26.475Z,97.20
2018-05-09T16:33:55.022Z,96.80
2018-05-09T16:36:23.336Z,98.30
2018-05-09T16:38:51.742Z,99.30
2018-05-09T16:41:20.603Z,96.60
2018-05-09T16:43:49.691Z,96.60
2018-05-09T16:46:18.182Z,97.40
2018-05-09T16:48:46.564Z,99.20
2018-05-09T16:51:14.763Z,99.90
2018-05-09T16:53:43.844Z,99.90
2018-05-09T16:56:14.859Z,98.80
2018-05-09T16:58:44.815Z,98.80
2018-05-09T17:01:13.756Z,99.90
2018-05-09T17:03:42.262Z,99.90
2018-05-09T17:06:11.582Z,99.90
2018-05-09T17:08:40.893Z,99.90
2018-05-09T17:11:09.963Z,99.90
2018-05-09T17:13:39.163Z,99.90
2018-05-09T17:16:07.739Z,99.90
2018-05-09T17:18:36.212Z,99.90
2018-05-09T17:21:05.275Z,99.90
2018-05-09T17:23:33.499Z,99.90
2018-05-09T17:26:03.275Z,99.90
2018-05-09T17:28:31.803Z,99.90
2018-05-09T17:31:01.163Z,99.90
2018-05-09T17:33:29.563Z,99.90
2018-05-09T17:35:57.739Z,99.90
2018-05-09T17:38:25.803Z,99.90
2018-05-09T17:40:58.124Z,99.90
2018-05-09T17:43:28.092Z,99.90
2018-05-09T17:46:00.303Z,99.90
2018-05-09T17:48:34.572Z,99.90
2018-05-09T17:51:06.284Z,99.90
2018-05-09T17:53:36.556Z,99.90
2018-05-09T17:56:06.838Z,99.90
2018-05-09T17:58:37.827Z,99.90
2018-05-09T18:01:06.203Z,99.90
2018-05-09T18:03:35.203Z,99.90
2018-05-09T18:06:04.127Z,99.90
2018-05-09T18:08:32.684Z,99.90
2018-05-09T18:11:01.864Z,99.90
2018-05-09T18:13:31.004Z,99.90
2018-05-09T18:16:00.068Z,99.90
2018-05-09T18:18:29.268Z,99.90
2018-05-09T18:20:58.764Z,99.90
2018-05-09T18:23:28.476Z,99.90
2018-05-09T18:25:58.926Z,99.90
2018-05-09T18:28:29.213Z,99.90
2018-05-09T18:30:58.044Z,99.90
2018-05-09T18:33:30.864Z,99.90
2018-05-09T18:36:02.396Z,99.90
2018-05-09T18:38:32.660Z,99.90
2018-05-09T18:41:02.493Z,99.90
2018-05-09T18:43:31.041Z,99.90
2018-05-09T18:45:59.436Z,99.90
2018-05-09T18:48:28.860Z,99.90
2018-05-09T18:50:58.844Z,99.90
2018-05-09T18:53:28.924Z,99.90
2018-05-09T18:55:58.172Z,99.90
2018-05-09T18:58:27.750Z,99.90
2018-05-09T19:00:56.381Z,99.90
2018-05-09T19:03:25.852Z,99.90
2018-05-09T19:05:54.612Z,99.90
2018-05-09T19:08:24.620Z,99.90
2018-05-09T19:10:53.615Z,99.90
2018-05-09T19:13:22.284Z,99.90
2018-05-09T19:15:51.436Z,99.90
2018-05-09T19:18:20.736Z,99.90
2018-05-09T19:20:49.116Z,99.90
2018-05-09T19:23:18.372Z,99.90
2018-05-09T19:25:46.491Z,99.90
2018-05-09T19:28:14.876Z,99.90
2018-05-09T19:30:47.163Z,99.90
2018-05-09T19:33:16.236Z,99.90
2018-05-09T19:35:45.611Z,99.90
2018-05-09T19:38:15.036Z,99.90
2018-05-09T19:40:45.403Z,99.90
2018-05-09T19:43:17.579Z,99.90
2018-05-09T19:45:48.931Z,99.90
2018-05-09T19:48:20.202Z,99.90
2018-05-09T19:50:48.523Z,99.90
2018-05-09T19:53:17.507Z,99.90
2018-05-09T19:55:46.410Z,99.90
2018-05-09T19:58:15.931Z,99.90
2018-05-09T20:00:44.778Z,99.90
2018-05-09T20:03:15.042Z,99.90
2018-05-09T20:05:44.619Z,99.90
2018-05-09T20:08:14.123Z,99.90
2018-05-09T20:10:43.515Z,99.90
2018-05-09T20:13:12.059Z,99.90
2018-05-09T20:15:41.643Z,99.90
2018-05-09T20:18:12.763Z,99.90
2018-05-09T20:20:41.483Z,99.90
2018-05-09T20:23:12.923Z,99.90
2018-05-09T20:25:49.035Z,99.90
2018-05-09T20:28:19.124Z,99.90
2018-05-09T20:30:53.371Z,99.90
2018-05-09T20:33:21.742Z,99.90
2018-05-09T20:35:50.324Z,99.90
2018-05-09T20:38:19.867Z,99.90
2018-05-09T20:40:48.516Z,99.90
2018-05-09T20:43:17.520Z,99.90
2018-05-09T20:45:45.808Z,99.90
2018-05-09T20:48:14.980Z,99.90
2018-05-09T20:50:43.785Z,99.90
2018-05-09T20:53:13.817Z,99.90
2018-05-09T20:55:42.089Z,99.90
2018-05-09T20:58:11.257Z,99.90
2018-05-09T21:00:39.642Z,99.90
2018-05-09T21:03:08.223Z,99.90
2018-05-09T21:05:36.608Z,99.90
2018-05-09T21:08:06.163Z,99.90
2018-05-09T21:10:35.087Z,99.90
2018-05-09T21:13:04.087Z,99.90
2018-05-09T21:15:32.318Z,99.90
2018-05-09T21:18:01.590Z,99.90
2018-05-09T21:20:30.936Z,99.90
2018-05-09T21:22:59.460Z,99.90
2018-05-09T21:25:28.754Z,99.90
2018-05-09T21:27:57.754Z,99.90
2018-05-09T21:30:27.505Z,99.90
2018-05-09T21:32:56.337Z,99.90
2018-05-09T21:35:24.545Z,99.90
2018-05-09T21:37:52.585Z,99.90
2018-05-09T21:40:21.073Z,99.90
2018-05-09T21:42:50.057Z,99.90
2018-05-09T21:45:20.057Z,99.90
2018-05-09T21:47:48.657Z,99.90
2018-05-09T21:50:17.344Z,99.90
2018-05-09T21:52:45.816Z,99.90
2018-05-09T21:55:13.976Z,99.90
2018-05-09T21:57:42.633Z,99.90
2018-05-09T22:00:10.833Z,99.90
2018-05-09T22:02:39.340Z,99.90
2018-05-09T22:05:07.610Z,99.90
2018-05-09T22:07:35.980Z,99.90
2018-05-09T22:10:06.113Z,99.90
2018-05-09T22:12:34.705Z,99.90
2018-05-09T22:15:03.892Z,99.90
2018-05-09T22:17:32.061Z,99.90
2018-05-09T22:20:00.230Z,99.90
2018-05-09T22:22:28.790Z,99.90
2018-05-09T22:24:56.950Z,99.90
2018-05-09T22:27:26.557Z,99.90
2018-05-09T22:29:55.792Z,99.90
2018-05-09T22:32:25.192Z,99.90
2018-05-09T22:34:54.352Z,99.90
2018-05-09T22:37:23.392Z,99.90
2018-05-09T22:39:52.033Z,99.90
2018-05-09T22:42:21.273Z,99.90
2018-05-09T22:44:49.550Z,99.90
2018-05-09T22:47:18.111Z,99.90
2018-05-09T22:49:46.398Z,99.90
2018-05-09T22:52:14.793Z,99.90
2018-05-09T22:54:47.136Z,99.90
2018-05-09T22:57:15.025Z,99.90
2018-05-09T22:59:44.026Z,99.90
2018-05-09T23:02:13.434Z,99.90
2018-05-09T23:04:43.546Z,99.90
2018-05-09T23:07:12.722Z,99.90
2018-05-09T23:09:41.181Z,99.90
2018-05-09T23:12:09.692Z,99.90
2018-05-09T23:14:37.833Z,99.90
2018-05-09T23:17:06.422Z,99.90
2018-05-09T23:19:34.895Z,99.90
2018-05-09T23:22:02.992Z,99.90
2018-05-09T23:24:31.387Z,99.90
2018-05-09T23:27:04.460Z,99.90
2018-05-09T23:29:32.596Z,99.90
2018-05-09T23:32:00.908Z,99.90
2018-05-09T23:34:31.332Z,99.90
2018-05-09T23:37:02.691Z,99.90
2018-05-09T23:39:30.864Z,99.90
2018-05-09T23:41:58.723Z,99.90
2018-05-09T23:44:27.164Z,99.90
2018-05-09T23:46:55.188Z,99.90
2018-05-09T23:49:23.636Z,99.90
2018-05-09T23:51:51.956Z,99.90
2018-05-09T23:54:20.172Z,99.90
2018-05-09T23:56:48.072Z,99.90
2018-05-09T23:59:16.031Z,99.90
